sensor_id;sensor_type;location;lat;lon;timestamp;pressure;altitude;pressure_sealevel;temperature;humidity
20624;BME280;10471;42.736;23.346;2023-12-20T09:07:28;95502.34;;;0.70;100.00
20624;BME280;10471;42.736;23.346;2023-12-20T09:09:55;95490.69;;;0.79;100.00
20624;BME280;10471;42.736;23.346;2023-12-20T09:12:22;95483.22;;;0.89;100.00
20624;BME280;10471;42.736;23.346;2023-12-20T09:14:48;95478.78;;;0.96;100.00
20624;BME280;10471;42.736;23.346;2023-12-20T09:17:15;95473.59;;;0.96;100.00
20624;BME280;10471;42.736;23.346;2023-12-20T09:19:41;95471.16;;;1.01;100.00
20624;BME280;10471;42.736;23.346;2023-12-20T09:22:06;95466.94;;;0.82;100.00
20624;BME280;10471;42.736;23.346;2023-12-20T09:24:32;95460.91;;;0.88;100.00
20624;BME280;10471;42.736;23.346;2023-12-20T09:26:58;95451.19;;;1.01;100.00
20624;BME280;10471;42.736;23.346;2023-12-20T09:29:23;95438.00;;;1.03;100.00
20624;BME280;10471;42.736;23.346;2023-12-20T09:31:50;95438.75;;;1.10;100.00
20624;BME280;10471;42.736;23.346;2023-12-20T09:34:15;95431.09;;;1.15;100.00
20624;BME280;10471;42.736;23.346;2023-12-20T09:36:42;95434.56;;;1.27;100.00
20624;BME280;10471;42.736;23.346;2023-12-20T09:39:13;95424.13;;;1.33;100.00
20624;BME280;10471;42.736;23.346;2023-12-20T09:41:43;95414.50;;;1.33;100.00
20624;BME280;10471;42.736;23.346;2023-12-20T09:44:14;95416.56;;;1.31;100.00
20624;BME280;10471;42.736;23.346;2023-12-20T09:46:43;95420.00;;;1.43;100.00
20624;BME280;10471;42.736;23.346;2023-12-20T09:49:08;95409.06;;;1.41;100.00
20624;BME280;10471;42.736;23.346;2023-12-20T09:51:34;95409.06;;;1.41;100.00
20624;BME280;10471;42.736;23.346;2023-12-20T09:54:00;95402.53;;;1.50;100.00
20624;BME280;10471;42.736;23.346;2023-12-20T09:56:28;95405.72;;;1.52;100.00
20624;BME280;10471;42.736;23.346;2023-12-20T09:58:54;95400.53;;;1.52;100.00
20624;BME280;10471;42.736;23.346;2023-12-20T10:01:21;95402.16;;;1.65;100.00
20624;BME280;10471;42.736;23.346;2023-12-20T10:03:46;95393.97;;;1.79;100.00
20624;BME280;10471;42.736;23.346;2023-12-20T10:06:12;95385.88;;;1.87;100.00
20624;BME280;10471;42.736;23.346;2023-12-20T10:08:38;95392.91;;;1.98;100.00
20624;BME280;10471;42.736;23.346;2023-12-20T10:11:04;95379.47;;;2.01;100.00
20624;BME280;10471;42.736;23.346;2023-12-20T10:13:30;95368.78;;;2.09;100.00
20624;BME280;10471;42.736;23.346;2023-12-20T10:15:55;95370.38;;;2.10;100.00
20624;BME280;10471;42.736;23.346;2023-12-20T10:18:22;95358.72;;;2.12;100.00
20624;BME280;10471;42.736;23.346;2023-12-20T10:20:48;95368.78;;;2.20;100.00
20624;BME280;10471;42.736;23.346;2023-12-20T10:23:15;95356.81;;;2.31;100.00
20624;BME280;10471;42.736;23.346;2023-12-20T10:25:41;95348.13;;;2.37;100.00
20624;BME280;10471;42.736;23.346;2023-12-20T10:28:14;95349.00;;;2.31;100.00
20624;BME280;10471;42.736;23.346;2023-12-20T10:30:42;95355.78;;;2.20;100.00
20624;BME280;10471;42.736;23.346;2023-12-20T10:33:08;95343.16;;;2.24;100.00
20624;BME280;10471;42.736;23.346;2023-12-20T10:35:35;95337.72;;;2.25;100.00
20624;BME280;10471;42.736;23.346;2023-12-20T10:38:03;95337.41;;;2.33;100.00
20624;BME280;10471;42.736;23.346;2023-12-20T10:40:30;95318.97;;;2.46;100.00
20624;BME280;10471;42.736;23.346;2023-12-20T10:42:58;95321.56;;;2.35;100.00
20624;BME280;10471;42.736;23.346;2023-12-20T10:45:24;95321.56;;;2.35;100.00
20624;BME280;10471;42.736;23.346;2023-12-20T10:47:50;95318.50;;;2.38;100.00
20624;BME280;10471;42.736;23.346;2023-12-20T10:50:16;95314.56;;;2.47;100.00
20624;BME280;10471;42.736;23.346;2023-12-20T10:52:44;95299.28;;;2.50;100.00
20624;BME280;10471;42.736;23.346;2023-12-20T10:55:10;95296.72;;;2.61;100.00
20624;BME280;10471;42.736;23.346;2023-12-20T10:57:36;95299.06;;;2.63;100.00
20624;BME280;10471;42.736;23.346;2023-12-20T11:00:02;95290.34;;;2.58;100.00
20624;BME280;10471;42.736;23.346;2023-12-20T11:02:36;95299.31;;;2.61;100.00
20624;BME280;10471;42.736;23.346;2023-12-20T11:08:06;95286.41;;;2.44;100.00
20624;BME280;10471;42.736;23.346;2023-12-20T11:10:51;95286.63;;;2.54;100.00
20624;BME280;10471;42.736;23.346;2023-12-20T11:13:32;95265.41;;;2.57;100.00
20624;BME280;10471;42.736;23.346;2023-12-20T11:16:00;95267.75;;;2.69;100.00
20624;BME280;10471;42.736;23.346;2023-12-20T11:18:31;95254.94;;;2.79;100.00
20624;BME280;10471;42.736;23.346;2023-12-20T11:21:05;95253.25;;;2.73;100.00
20624;BME280;10471;42.736;23.346;2023-12-20T11:23:32;95258.56;;;2.78;100.00
20624;BME280;10471;42.736;23.346;2023-12-20T11:25:59;95248.38;;;2.77;100.00
20624;BME280;10471;42.736;23.346;2023-12-20T11:28:25;95237.63;;;2.73;100.00
20624;BME280;10471;42.736;23.346;2023-12-20T11:30:52;95234.41;;;2.66;100.00
20624;BME280;10471;42.736;23.346;2023-12-20T11:33:21;95222.19;;;2.67;100.00
20624;BME280;10471;42.736;23.346;2023-12-20T11:35:47;95222.84;;;2.74;100.00
20624;BME280;10471;42.736;23.346;2023-12-20T11:38:14;95210.28;;;2.82;100.00
20624;BME280;10471;42.736;23.346;2023-12-20T11:40:41;95208.16;;;2.68;100.00
20624;BME280;10471;42.736;23.346;2023-12-20T11:43:07;95205.78;;;2.66;100.00
20624;BME280;10471;42.736;23.346;2023-12-20T11:45:33;95199.78;;;2.66;100.00
20624;BME280;10471;42.736;23.346;2023-12-20T11:48:01;95196.50;;;2.70;100.00
20624;BME280;10471;42.736;23.346;2023-12-20T11:50:27;95189.84;;;2.63;100.00
20624;BME280;10471;42.736;23.346;2023-12-20T11:52:55;95176.81;;;2.74;100.00
20624;BME280;10471;42.736;23.346;2023-12-20T11:55:21;95180.22;;;2.63;100.00
20624;BME280;10471;42.736;23.346;2023-12-20T11:57:47;95175.94;;;2.58;100.00
20624;BME280;10471;42.736;23.346;2023-12-20T12:00:14;95159.44;;;2.63;100.00
20624;BME280;10471;42.736;23.346;2023-12-20T12:02:39;95162.38;;;2.67;100.00
20624;BME280;10471;42.736;23.346;2023-12-20T12:05:05;95153.41;;;2.74;100.00
20624;BME280;10471;42.736;23.346;2023-12-20T12:07:31;95147.84;;;2.82;100.00
20624;BME280;10471;42.736;23.346;2023-12-20T12:09:57;95145.34;;;2.87;100.00
20624;BME280;10471;42.736;23.346;2023-12-20T12:12:23;95142.63;;;2.82;100.00
20624;BME280;10471;42.736;23.346;2023-12-20T12:14:50;95138.53;;;2.86;100.00
20624;BME280;10471;42.736;23.346;2023-12-20T12:17:16;95140.50;;;2.79;100.00
20624;BME280;10471;42.736;23.346;2023-12-20T12:19:42;95123.22;;;2.73;100.00
20624;BME280;10471;42.736;23.346;2023-12-20T12:22:10;95127.47;;;2.79;100.00
20624;BME280;10471;42.736;23.346;2023-12-20T12:24:42;95117.81;;;2.91;100.00
20624;BME280;10471;42.736;23.346;2023-12-20T12:27:08;95112.84;;;2.90;100.00
20624;BME280;10471;42.736;23.346;2023-12-20T12:29:35;95115.84;;;2.98;100.00
20624;BME280;10471;42.736;23.346;2023-12-20T12:32:02;95120.19;;;3.09;100.00
20624;BME280;10471;42.736;23.346;2023-12-20T12:34:29;95126.97;;;3.10;100.00
20624;BME280;10471;42.736;23.346;2023-12-20T12:36:56;95122.34;;;3.12;100.00
20624;BME280;10471;42.736;23.346;2023-12-20T12:39:23;95118.81;;;3.18;100.00
20624;BME280;10471;42.736;23.346;2023-12-20T12:41:50;95111.63;;;3.25;100.00
20624;BME280;10471;42.736;23.346;2023-12-20T12:44:15;95124.38;;;3.10;100.00
20624;BME280;10471;42.736;23.346;2023-12-20T12:46:41;95120.59;;;3.01;100.00
20624;BME280;10471;42.736;23.346;2023-12-20T12:49:06;95119.94;;;2.94;100.00
20624;BME280;10471;42.736;23.346;2023-12-20T12:51:32;95110.19;;;3.01;100.00
20624;BME280;10471;42.736;23.346;2023-12-20T12:53:57;95103.81;;;3.09;100.00
20624;BME280;10471;42.736;23.346;2023-12-20T12:56:22;95095.69;;;3.05;100.00
20624;BME280;10471;42.736;23.346;2023-12-20T12:58:48;95096.31;;;3.12;100.00
20624;BME280;10471;42.736;23.346;2023-12-20T13:01:13;95087.19;;;3.10;100.00
20624;BME280;10471;42.736;23.346;2023-12-20T13:03:39;95094.75;;;3.11;100.00
20624;BME280;10471;42.736;23.346;2023-12-20T13:06:05;95099.94;;;3.11;100.00
20624;BME280;10471;42.736;23.346;2023-12-20T13:08:31;95090.56;;;3.10;100.00
20624;BME280;10471;42.736;23.346;2023-12-20T13:10:57;95090.63;;;2.99;100.00
20624;BME280;10471;42.736;23.346;2023-12-20T13:13:28;95091.25;;;2.89;100.00
20624;BME280;10471;42.736;23.346;2023-12-20T13:15:54;95091.25;;;2.89;100.00
20624;BME280;10471;42.736;23.346;2023-12-20T13:18:21;95087.53;;;2.85;100.00
20624;BME280;10471;42.736;23.346;2023-12-20T13:20:47;95080.75;;;2.84;100.00
20624;BME280;10471;42.736;23.346;2023-12-20T13:23:12;95087.22;;;2.82;100.00
20624;BME280;10471;42.736;23.346;2023-12-20T13:25:38;95094.00;;;2.83;100.00
20624;BME280;10471;42.736;23.346;2023-12-20T13:28:03;95093.66;;;2.79;100.00
20624;BME280;10471;42.736;23.346;2023-12-20T13:30:29;95093.59;;;2.74;100.00
20624;BME280;10471;42.736;23.346;2023-12-20T13:32:55;95086.19;;;2.66;100.00
20624;BME280;10471;42.736;23.346;2023-12-20T13:35:20;95079.53;;;2.59;100.00
20624;BME280;10471;42.736;23.346;2023-12-20T13:37:46;95084.09;;;2.52;100.00
20624;BME280;10471;42.736;23.346;2023-12-20T13:40:12;95079.47;;;2.43;100.00
20624;BME280;10471;42.736;23.346;2023-12-20T13:42:38;95076.34;;;2.41;100.00
20624;BME280;10471;42.736;23.346;2023-12-20T13:45:04;95064.81;;;2.37;100.00
20624;BME280;10471;42.736;23.346;2023-12-20T13:47:30;95066.88;;;2.35;100.00
20624;BME280;10471;42.736;23.346;2023-12-20T13:49:56;95069.09;;;2.15;100.00
20624;BME280;10471;42.736;23.346;2023-12-20T13:52:21;95067.53;;;1.91;100.00
20624;BME280;10471;42.736;23.346;2023-12-20T13:54:46;95069.56;;;2.00;100.00
20624;BME280;10471;42.736;23.346;2023-12-20T13:57:12;95068.22;;;1.98;100.00
20624;BME280;10471;42.736;23.346;2023-12-20T13:59:38;95061.53;;;2.02;100.00
20624;BME280;10471;42.736;23.346;2023-12-20T14:02:03;95068.75;;;2.00;100.00
20624;BME280;10471;42.736;23.346;2023-12-20T14:04:29;95068.22;;;1.98;100.00
20624;BME280;10471;42.736;23.346;2023-12-20T14:06:54;95072.16;;;2.00;100.00
20624;BME280;10471;42.736;23.346;2023-12-20T14:09:19;95064.03;;;1.97;100.00
20624;BME280;10471;42.736;23.346;2023-12-20T14:11:45;95057.94;;;2.03;100.00
20624;BME280;10471;42.736;23.346;2023-12-20T14:14:11;95062.56;;;2.01;100.00
20624;BME280;10471;42.736;23.346;2023-12-20T14:16:36;95057.53;;;1.83;100.00
20624;BME280;10471;42.736;23.346;2023-12-20T14:19:03;95053.03;;;1.67;100.00
20624;BME280;10471;42.736;23.346;2023-12-20T14:21:29;95053.47;;;1.64;100.00
20624;BME280;10471;42.736;23.346;2023-12-20T14:23:54;95060.38;;;1.36;100.00
20624;BME280;10471;42.736;23.346;2023-12-20T14:26:20;95056.00;;;1.36;100.00
20624;BME280;10471;42.736;23.346;2023-12-20T14:28:45;95068.50;;;1.51;100.00
20624;BME280;10471;42.736;23.346;2023-12-20T14:31:11;95057.81;;;1.47;100.00
20624;BME280;10471;42.736;23.346;2023-12-20T14:33:37;95060.72;;;1.39;100.00
20624;BME280;10471;42.736;23.346;2023-12-20T14:36:04;95045.16;;;1.39;100.00
20624;BME280;10471;42.736;23.346;2023-12-20T14:38:33;95044.72;;;1.31;100.00
20624;BME280;10471;42.736;23.346;2023-12-20T14:40:58;95051.91;;;1.18;100.00
20624;BME280;10471;42.736;23.346;2023-12-20T14:43:25;95045.38;;;1.04;100.00
20624;BME280;10471;42.736;23.346;2023-12-20T14:45:51;95044.91;;;1.07;100.00
20624;BME280;10471;42.736;23.346;2023-12-20T14:48:20;95046.63;;;1.01;100.00
20624;BME280;10471;42.736;23.346;2023-12-20T14:50:46;95037.50;;;0.99;100.00
20624;BME280;10471;42.736;23.346;2023-12-20T14:53:13;95053.50;;;0.55;100.00
20624;BME280;10471;42.736;23.346;2023-12-20T14:55:40;95052.34;;;0.69;100.00
20624;BME280;10471;42.736;23.346;2023-12-20T14:58:05;95042.63;;;0.76;100.00
20624;BME280;10471;42.736;23.346;2023-12-20T15:00:30;95043.78;;;0.80;100.00
20624;BME280;10471;42.736;23.346;2023-12-20T15:02:56;95039.63;;;0.90;100.00
20624;BME280;10471;42.736;23.346;2023-12-20T15:05:22;95041.78;;;0.93;100.00
20624;BME280;10471;42.736;23.346;2023-12-20T15:07:47;95038.72;;;0.96;100.00
20624;BME280;10471;42.736;23.346;2023-12-20T15:10:13;95036.34;;;0.83;100.00
20624;BME280;10471;42.736;23.346;2023-12-20T15:12:39;95035.22;;;0.91;100.00
20624;BME280;10471;42.736;23.346;2023-12-20T15:15:04;95037.38;;;0.82;100.00
20624;BME280;10471;42.736;23.346;2023-12-20T15:17:30;95031.72;;;0.85;100.00
20624;BME280;10471;42.736;23.346;2023-12-20T15:19:55;95036.56;;;0.82;100.00
20624;BME280;10471;42.736;23.346;2023-12-20T15:22:21;95040.63;;;0.78;100.00
20624;BME280;10471;42.736;23.346;2023-12-20T15:24:46;95037.13;;;0.84;100.00
20624;BME280;10471;42.736;23.346;2023-12-20T15:27:12;95042.09;;;0.85;100.00
20624;BME280;10471;42.736;23.346;2023-12-20T15:29:38;95046.03;;;0.88;100.00
20624;BME280;10471;42.736;23.346;2023-12-20T15:32:04;95040.41;;;0.91;100.00
20624;BME280;10471;42.736;23.346;2023-12-20T15:34:30;95042.88;;;0.86;100.00
20624;BME280;10471;42.736;23.346;2023-12-20T15:36:55;95054.41;;;0.90;100.00
20624;BME280;10471;42.736;23.346;2023-12-20T15:39:21;95053.25;;;0.86;100.00
20624;BME280;10471;42.736;23.346;2023-12-20T15:41:46;95045.25;;;0.87;100.00
20624;BME280;10471;42.736;23.346;2023-12-20T15:44:12;95056.41;;;0.88;100.00
20624;BME280;10471;42.736;23.346;2023-12-20T15:46:38;95050.41;;;0.76;100.00
20624;BME280;10471;42.736;23.346;2023-12-20T15:49:04;95046.50;;;0.85;100.00
20624;BME280;10471;42.736;23.346;2023-12-20T15:51:29;95050.00;;;0.90;100.00
20624;BME280;10471;42.736;23.346;2023-12-20T15:53:55;95046.72;;;0.95;100.00
20624;BME280;10471;42.736;23.346;2023-12-20T15:56:20;95049.44;;;1.00;100.00
20624;BME280;10471;42.736;23.346;2023-12-20T15:58:46;95046.97;;;1.05;100.00
20624;BME280;10471;42.736;23.346;2023-12-20T16:01:17;95049.44;;;1.00;100.00
20624;BME280;10471;42.736;23.346;2023-12-20T16:03:42;95058.00;;;0.89;100.00
20624;BME280;10471;42.736;23.346;2023-12-20T16:06:09;95053.13;;;0.81;100.00
20624;BME280;10471;42.736;23.346;2023-12-20T16:08:34;95052.34;;;0.80;100.00
20624;BME280;10471;42.736;23.346;2023-12-20T16:10:59;95053.69;;;0.83;100.00
20624;BME280;10471;42.736;23.346;2023-12-20T16:13:25;95052.13;;;0.82;100.00
20624;BME280;10471;42.736;23.346;2023-12-20T16:15:50;95051.34;;;0.81;100.00
20624;BME280;10471;42.736;23.346;2023-12-20T16:18:15;95039.72;;;0.84;100.00
20624;BME280;10471;42.736;23.346;2023-12-20T16:20:41;95041.31;;;0.85;100.00
20624;BME280;10471;42.736;23.346;2023-12-20T16:23:06;95042.09;;;0.85;100.00
20624;BME280;10471;42.736;23.346;2023-12-20T16:25:32;95041.44;;;0.90;100.00
20624;BME280;10471;42.736;23.346;2023-12-20T16:27:58;95045.34;;;0.81;100.00
20624;BME280;10471;42.736;23.346;2023-12-20T16:30:23;95036.91;;;0.85;100.00
20624;BME280;10471;42.736;23.346;2023-12-20T16:32:48;95036.13;;;0.85;100.00
20624;BME280;10471;42.736;23.346;2023-12-20T16:35:15;95043.44;;;0.88;100.00
20624;BME280;10471;42.736;23.346;2023-12-20T16:37:41;95046.28;;;0.98;100.00
20624;BME280;10471;42.736;23.346;2023-12-20T16:40:06;95034.31;;;0.97;100.00
20624;BME280;10471;42.736;23.346;2023-12-20T16:42:33;95032.06;;;0.89;100.00
20624;BME280;10471;42.736;23.346;2023-12-20T16:44:58;95030.03;;;0.91;100.00
20624;BME280;10471;42.736;23.346;2023-12-20T16:47:24;95035.00;;;0.92;100.00
20624;BME280;10471;42.736;23.346;2023-12-20T16:49:49;95035.91;;;0.98;100.00
20624;BME280;10471;42.736;23.346;2023-12-20T16:52:15;95030.72;;;0.98;100.00
20624;BME280;10471;42.736;23.346;2023-12-20T16:54:41;95032.31;;;0.99;100.00
20624;BME280;10471;42.736;23.346;2023-12-20T16:57:07;95026.78;;;0.95;100.00
20624;BME280;10471;42.736;23.346;2023-12-20T16:59:33;95028.94;;;0.98;100.00
20624;BME280;10471;42.736;23.346;2023-12-20T17:01:58;95030.28;;;1.01;100.00
20624;BME280;10471;42.736;23.346;2023-12-20T17:04:27;95032.88;;;1.01;100.00
20624;BME280;10471;42.736;23.346;2023-12-20T17:06:52;95030.72;;;0.98;100.00
20624;BME280;10471;42.736;23.346;2023-12-20T17:09:17;95022.13;;;0.86;100.00
20624;BME280;10471;42.736;23.346;2023-12-20T17:11:43;95030.03;;;0.91;100.00
20624;BME280;10471;42.736;23.346;2023-12-20T17:14:09;95028.47;;;0.90;100.00
20624;BME280;10471;42.736;23.346;2023-12-20T17:16:36;95026.31;;;0.87;100.00
20624;BME280;10471;42.736;23.346;2023-12-20T17:19:02;95033.06;;;0.76;100.00
20624;BME280;10471;42.736;23.346;2023-12-20T17:21:29;95030.44;;;0.65;100.00
20624;BME280;10471;42.736;23.346;2023-12-20T17:23:55;95035.25;;;0.50;100.00
20624;BME280;10471;42.736;23.346;2023-12-20T17:26:20;95039.44;;;0.51;100.00
20624;BME280;10471;42.736;23.346;2023-12-20T17:28:45;95045.41;;;0.52;100.00
20624;BME280;10471;42.736;23.346;2023-12-20T17:31:11;95054.97;;;0.51;100.00
20624;BME280;10471;42.736;23.346;2023-12-20T17:33:36;95056.56;;;0.52;100.00
20624;BME280;10471;42.736;23.346;2023-12-20T17:36:02;95048.66;;;0.47;100.00
20624;BME280;10471;42.736;23.346;2023-12-20T17:38:27;95056.72;;;0.39;100.00
20624;BME280;10471;42.736;23.346;2023-12-20T17:40:54;95052.25;;;0.46;100.00
20624;BME280;10471;42.736;23.346;2023-12-20T17:43:19;95056.56;;;0.52;100.00
20624;BME280;10471;42.736;23.346;2023-12-20T17:45:45;95061.91;;;0.39;100.00
20624;BME280;10471;42.736;23.346;2023-12-20T17:48:10;95055.22;;;0.20;100.00
20624;BME280;10471;42.736;23.346;2023-12-20T17:50:36;95059.34;;;0.10;100.00
20624;BME280;10471;42.736;23.346;2023-12-20T17:53:01;95062.81;;;0.04;100.00
20624;BME280;10471;42.736;23.346;2023-12-20T17:55:28;95055.25;;;0.02;100.00
20624;BME280;10471;42.736;23.346;2023-12-20T17:57:54;95050.50;;;-0.01;100.00
20624;BME280;10471;42.736;23.346;2023-12-20T18:00:21;95043.63;;;-0.24;100.00
20624;BME280;10471;42.736;23.346;2023-12-20T18:02:48;95052.97;;;-0.41;100.00
20624;BME280;10471;42.736;23.346;2023-12-20T18:05:13;95042.78;;;-0.18;100.00
20624;BME280;10471;42.736;23.346;2023-12-20T18:07:39;95041.00;;;-0.06;100.00
20624;BME280;10471;42.736;23.346;2023-12-20T18:10:05;95036.56;;;0.00;100.00
20624;BME280;10471;42.736;23.346;2023-12-20T18:12:31;95029.50;;;0.07;100.00
20624;BME280;10471;42.736;23.346;2023-12-20T18:14:56;95030.50;;;0.06;100.00
20624;BME280;10471;42.736;23.346;2023-12-20T18:17:25;95037.59;;;0.11;100.00
20624;BME280;10471;42.736;23.346;2023-12-20T18:19:50;95037.28;;;0.07;100.00
20624;BME280;10471;42.736;23.346;2023-12-20T18:22:15;95043.22;;;0.08;100.00
20624;BME280;10471;42.736;23.346;2023-12-20T18:24:41;95053.69;;;0.01;100.00
20624;BME280;10471;42.736;23.346;2023-12-20T18:27:06;95049.53;;;0.12;100.00
20624;BME280;10471;42.736;23.346;2023-12-20T18:29:32;95042.44;;;0.07;100.00
20624;BME280;10471;42.736;23.346;2023-12-20T18:31:57;95039.19;;;0.12;100.00
20624;BME280;10471;42.736;23.346;2023-12-20T18:34:23;95036.38;;;0.13;100.00
20624;BME280;10471;42.736;23.346;2023-12-20T18:36:49;95034.38;;;0.15;100.00
20624;BME280;10471;42.736;23.346;2023-12-20T18:39:14;95035.09;;;0.04;100.00
20624;BME280;10471;42.736;23.346;2023-12-20T18:41:39;95038.81;;;0.08;100.00
20624;BME280;10471;42.736;23.346;2023-12-20T18:44:08;95041.28;;;0.03;100.00
20624;BME280;10471;42.736;23.346;2023-12-20T18:46:33;95040.41;;;0.09;100.00
20624;BME280;10471;42.736;23.346;2023-12-20T18:48:59;95035.81;;;0.11;100.00
20624;BME280;10471;42.736;23.346;2023-12-20T18:51:24;95032.09;;;0.07;100.00
20624;BME280;10471;42.736;23.346;2023-12-20T18:53:50;95028.91;;;0.05;100.00
20624;BME280;10471;42.736;23.346;2023-12-20T18:56:17;95035.22;;;0.09;100.00
20624;BME280;10471;42.736;23.346;2023-12-20T18:58:43;95034.81;;;0.12;100.00
20624;BME280;10471;42.736;23.346;2023-12-20T19:01:10;95047.91;;;0.17;100.00
20624;BME280;10471;42.736;23.346;2023-12-20T19:03:36;95050.25;;;0.19;100.00
20624;BME280;10471;42.736;23.346;2023-12-20T19:06:01;95044.63;;;0.22;100.00
20624;BME280;10471;42.736;23.346;2023-12-20T19:08:28;95046.44;;;0.21;100.00
20624;BME280;10471;42.736;23.346;2023-12-20T19:10:53;95048.16;;;0.27;100.00
20624;BME280;10471;42.736;23.346;2023-12-20T19:13:22;95048.56;;;0.24;100.00
20624;BME280;10471;42.736;23.346;2023-12-20T19:15:52;95054.91;;;0.28;100.00
20624;BME280;10471;42.736;23.346;2023-12-20T19:18:18;95056.69;;;0.28;100.00
20624;BME280;10471;42.736;23.346;2023-12-20T19:20:43;95052.19;;;0.23;100.00
20624;BME280;10471;42.736;23.346;2023-12-20T19:23:08;95053.19;;;0.22;100.00
20624;BME280;10471;42.736;23.346;2023-12-20T19:25:34;95056.78;;;0.21;100.00
20624;BME280;10471;42.736;23.346;2023-12-20T19:28:00;95055.34;;;0.25;100.00
20624;BME280;10471;42.736;23.346;2023-12-20T19:30:25;95049.03;;;0.21;100.00
20624;BME280;10471;42.736;23.346;2023-12-20T19:32:51;95053.50;;;0.14;100.00
20624;BME280;10471;42.736;23.346;2023-12-20T19:35:16;95050.03;;;0.20;100.00
20624;BME280;10471;42.736;23.346;2023-12-20T19:37:41;95048.44;;;0.19;100.00
20624;BME280;10471;42.736;23.346;2023-12-20T19:40:08;95045.44;;;0.22;100.00
20624;BME280;10471;42.736;23.346;2023-12-20T19:42:34;95045.44;;;0.22;100.00
20624;BME280;10471;42.736;23.346;2023-12-20T19:45:03;95044.44;;;0.23;100.00
20624;BME280;10471;42.736;23.346;2023-12-20T19:47:29;95040.03;;;0.24;100.00
20624;BME280;10471;42.736;23.346;2023-12-20T19:49:56;95041.38;;;0.26;100.00
20624;BME280;10471;42.736;23.346;2023-12-20T19:52:21;95048.16;;;0.27;100.00
20624;BME280;10471;42.736;23.346;2023-12-20T19:54:47;95052.88;;;0.30;100.00
20624;BME280;10471;42.736;23.346;2023-12-20T19:57:12;95064.47;;;0.28;100.00
20624;BME280;10471;42.736;23.346;2023-12-20T19:59:38;95050.97;;;0.26;100.00
20624;BME280;10471;42.736;23.346;2023-12-20T20:02:06;95039.81;;;0.25;100.00
20624;BME280;10471;42.736;23.346;2023-12-20T20:04:32;95038.34;;;0.29;100.00
20624;BME280;10471;42.736;23.346;2023-12-20T20:06:59;95040.25;;;0.22;100.00
20624;BME280;10471;42.736;23.346;2023-12-20T20:09:24;95044.63;;;0.22;100.00
20624;BME280;10471;42.736;23.346;2023-12-20T20:11:49;95048.16;;;0.27;100.00
20624;BME280;10471;42.736;23.346;2023-12-20T20:14:15;95048.16;;;0.27;100.00
20624;BME280;10471;42.736;23.346;2023-12-20T20:16:43;95042.53;;;0.30;100.00
20624;BME280;10471;42.736;23.346;2023-12-20T20:19:08;95050.41;;;0.35;100.00
20624;BME280;10471;42.736;23.346;2023-12-20T20:21:34;95045.69;;;0.32;100.00
20624;BME280;10471;42.736;23.346;2023-12-20T20:23:59;95049.28;;;0.31;100.00
20624;BME280;10471;42.736;23.346;2023-12-20T20:26:25;95034.63;;;0.25;100.00
20624;BME280;10471;42.736;23.346;2023-12-20T20:28:50;95037.09;;;0.20;100.00
20624;BME280;10471;42.736;23.346;2023-12-20T20:31:15;95040.69;;;0.19;100.00
20624;BME280;10471;42.736;23.346;2023-12-20T20:33:41;95027.94;;;0.18;100.00
20624;BME280;10471;42.736;23.346;2023-12-20T20:36:06;95030.19;;;0.14;100.00
20624;BME280;10471;42.736;23.346;2023-12-20T20:38:33;95029.97;;;0.16;100.00
20624;BME280;10471;42.736;23.346;2023-12-20T20:40:58;95029.31;;;0.20;100.00
20624;BME280;10471;42.736;23.346;2023-12-20T20:43:24;95030.31;;;0.19;100.00
20624;BME280;10471;42.736;23.346;2023-12-20T20:45:49;95031.19;;;0.13;100.00
20624;BME280;10471;42.736;23.346;2023-12-20T20:48:15;95052.09;;;0.00;100.00
20624;BME280;10471;42.736;23.346;2023-12-20T20:50:41;95043.31;;;-0.16;100.00
20624;BME280;10471;42.736;23.346;2023-12-20T20:53:07;95041.09;;;-0.13;100.00
20624;BME280;10471;42.736;23.346;2023-12-20T20:55:32;95036.56;;;-0.17;100.00
20624;BME280;10471;42.736;23.346;2023-12-20T20:57:57;95045.91;;;-0.16;100.00
20624;BME280;10471;42.736;23.346;2023-12-20T21:00:23;95041.97;;;-0.19;100.00
20624;BME280;10471;42.736;23.346;2023-12-20T21:02:49;95047.59;;;-0.22;100.00
20624;BME280;10471;42.736;23.346;2023-12-20T21:05:15;95045.50;;;-0.13;100.00
20624;BME280;10471;42.736;23.346;2023-12-20T21:07:40;95046.22;;;-0.24;100.00
20624;BME280;10471;42.736;23.346;2023-12-20T21:10:09;95053.41;;;-0.26;100.00
20624;BME280;10471;42.736;23.346;2023-12-20T21:12:35;95053.06;;;-0.48;100.00
20624;BME280;10471;42.736;23.346;2023-12-20T21:15:00;95053.34;;;-0.38;100.00
20624;BME280;10471;42.736;23.346;2023-12-20T21:17:26;95049.41;;;-0.40;100.00
20624;BME280;10471;42.736;23.346;2023-12-20T21:19:51;95053.50;;;-0.33;100.00
20624;BME280;10471;42.736;23.346;2023-12-20T21:22:17;95054.03;;;-0.31;100.00
20624;BME280;10471;42.736;23.346;2023-12-20T21:24:42;95049.69;;;-0.30;100.00
20624;BME280;10471;42.736;23.346;2023-12-20T21:27:07;95054.13;;;-0.37;100.00
20624;BME280;10471;42.736;23.346;2023-12-20T21:29:33;95054.19;;;-0.44;100.00
20624;BME280;10471;42.736;23.346;2023-12-20T21:31:58;95056.28;;;-0.52;100.00
20624;BME280;10471;42.736;23.346;2023-12-20T21:34:24;95060.31;;;-0.56;100.00
20624;BME280;10471;42.736;23.346;2023-12-20T21:36:49;95064.59;;;-0.86;100.00
20624;BME280;10471;42.736;23.346;2023-12-20T21:39:16;95051.31;;;-0.71;100.00
20624;BME280;10471;42.736;23.346;2023-12-20T21:41:44;95056.91;;;-0.57;100.00
20624;BME280;10471;42.736;23.346;2023-12-20T21:44:09;95055.13;;;-0.56;100.00
20624;BME280;10471;42.736;23.346;2023-12-20T21:46:35;95060.78;;;-0.66;100.00
20624;BME280;10471;42.736;23.346;2023-12-20T21:49:01;95058.13;;;-0.77;100.00
20624;BME280;10471;42.736;23.346;2023-12-20T21:51:26;95058.44;;;-0.67;100.00